Terminal Aerodrome Forecast
Issued by NWS

Home | Current Version | Previous Version | Text Only | Print | Product List | Glossary On
Versions: 1 2 3 4 5 6 7 8 9 10 11 12 13 14 15 16 17 18 19 20 21 22 23 24 25 26 27 28 29 30 31 32 33 34 35 36 37 38
012
FTUS43 KBIS 201727
TAFJMS
TAF
KJMS 201727Z 2018/2118 13011KT P6SM OVC090
     FM210300 15015KT P6SM OVC025
     FM210900 14015KT 3SM -SN BLSN OVC015
     FM211100 14015G23KT 5SM -SN BLSN OVC012
     FM211300 14015KT 1 1/2SM -SN BLSN OVC010=

USA.gov is the U.S. government's official web portal to all federal, state and local government web resources and services.